createdAt,value
2023-05-16T00:00:18.732Z,38.85
2023-05-16T00:02:46.709Z,39.18
2023-05-16T00:05:14.856Z,39.14
2023-05-16T00:07:42.738Z,38.79
2023-05-16T00:10:10.603Z,39.19
2023-05-16T00:12:39.672Z,39.32
2023-05-16T00:15:08.775Z,39.27
2023-05-16T00:17:36.772Z,39.15
2023-05-16T00:20:11.222Z,39.18
2023-05-16T00:22:39.113Z,39.01
2023-05-16T00:25:07.266Z,39.10
2023-05-16T00:27:35.186Z,39.03
2023-05-16T00:30:03.028Z,39.05
2023-05-16T00:32:31.146Z,39.33
2023-05-16T00:34:59.005Z,39.25
2023-05-16T00:37:26.918Z,39.13
2023-05-16T00:39:54.802Z,39.26
2023-05-16T00:42:22.831Z,39.09
2023-05-16T00:44:52.173Z,39.47
2023-05-16T00:47:20.567Z,39.19
2023-05-16T00:49:48.422Z,39.54
2023-05-16T00:52:16.417Z,39.22
2023-05-16T00:54:44.341Z,39.30
2023-05-16T00:57:12.383Z,38.86
2023-05-16T00:59:40.388Z,39.39
2023-05-16T01:02:08.822Z,39.35
2023-05-16T01:04:36.674Z,39.56
2023-05-16T01:07:04.536Z,39.26
2023-05-16T01:09:32.771Z,39.62
2023-05-16T01:12:00.677Z,39.19
2023-05-16T01:14:28.630Z,39.58
2023-05-16T01:16:56.585Z,39.58
2023-05-16T01:19:24.963Z,39.51
2023-05-16T01:21:53.217Z,39.33
2023-05-16T01:24:21.385Z,39.59
2023-05-16T01:26:49.224Z,39.64
2023-05-16T01:29:17.065Z,39.56
2023-05-16T01:31:45.078Z,39.41
2023-05-16T01:34:12.990Z,39.71
2023-05-16T01:36:41.456Z,39.65
2023-05-16T01:39:09.420Z,39.67
2023-05-16T01:41:37.389Z,39.70
2023-05-16T01:44:05.293Z,39.65
2023-05-16T01:46:33.260Z,39.66
2023-05-16T01:49:01.953Z,39.42
2023-05-16T01:51:30.801Z,39.65
2023-05-16T01:53:58.769Z,39.23
2023-05-16T01:56:27.425Z,39.54
2023-05-16T01:58:55.296Z,39.55
2023-05-16T02:01:23.525Z,39.37
2023-05-16T02:03:51.769Z,39.44
2023-05-16T02:06:19.679Z,39.52
2023-05-16T02:08:47.729Z,39.76
2023-05-16T02:11:15.623Z,39.11
2023-05-16T02:13:43.503Z,39.40
2023-05-16T02:16:11.418Z,39.20
2023-05-16T02:18:39.529Z,39.49
2023-05-16T02:21:07.643Z,39.13
2023-05-16T02:23:35.530Z,39.31
2023-05-16T02:26:03.481Z,39.45
2023-05-16T02:28:31.589Z,39.43
2023-05-16T02:30:59.603Z,39.33
2023-05-16T02:33:27.687Z,39.08
2023-05-16T02:35:55.791Z,39.17
2023-05-16T02:38:23.698Z,39.39
2023-05-16T02:40:51.717Z,39.14
2023-05-16T02:43:19.595Z,39.43
2023-05-16T02:45:47.558Z,39.62
2023-05-16T02:48:15.620Z,39.38
2023-05-16T02:50:43.472Z,39.54
2023-05-16T02:53:11.741Z,39.70
2023-05-16T02:55:39.968Z,39.37
2023-05-16T02:58:08.474Z,39.19
2023-05-16T03:00:36.358Z,39.45
2023-05-16T03:03:04.502Z,39.28
2023-05-16T03:05:32.793Z,39.57
2023-05-16T03:08:01.696Z,39.35
2023-05-16T03:10:29.545Z,39.41
2023-05-16T03:12:57.699Z,39.50
2023-05-16T03:15:26.100Z,39.20
2023-05-16T03:17:54.454Z,39.42
2023-05-16T03:20:22.849Z,39.53
2023-05-16T03:22:50.856Z,39.50
2023-05-16T03:25:18.703Z,39.72
2023-05-16T03:27:46.552Z,39.68
2023-05-16T03:30:14.596Z,39.65
2023-05-16T03:32:42.488Z,39.30
2023-05-16T03:35:12.099Z,39.83
2023-05-16T03:37:39.977Z,39.56
2023-05-16T03:40:08.272Z,39.48
2023-05-16T03:42:36.145Z,39.58
2023-05-16T03:45:04.197Z,39.63
2023-05-16T03:47:32.177Z,39.71
2023-05-16T03:50:00.190Z,39.73
2023-05-16T03:52:28.159Z,39.67
2023-05-16T03:54:56.116Z,39.87
2023-05-16T03:57:24.376Z,39.52
2023-05-16T03:59:52.389Z,39.64
2023-05-16T04:02:20.312Z,39.99
2023-05-16T04:04:48.218Z,39.62
2023-05-16T04:07:16.214Z,39.91
2023-05-16T04:09:44.152Z,39.24
2023-05-16T04:12:12.096Z,39.63
2023-05-16T04:14:40.134Z,39.31
2023-05-16T04:17:08.262Z,39.72
2023-05-16T04:19:36.291Z,39.89
2023-05-16T04:22:04.198Z,39.35
2023-05-16T04:24:32.216Z,39.73
2023-05-16T04:27:00.140Z,39.60
2023-05-16T04:29:28.083Z,39.44
2023-05-16T04:31:56.119Z,39.60
2023-05-16T04:34:28.001Z,39.83
2023-05-16T04:36:56.187Z,39.66
2023-05-16T04:39:24.173Z,39.54
2023-05-16T04:41:52.004Z,39.34
2023-05-16T04:44:20.097Z,39.64
2023-05-16T04:46:48.157Z,39.74
2023-05-16T04:49:16.324Z,39.70
2023-05-16T04:51:44.755Z,39.70
2023-05-16T04:54:12.790Z,40.02
2023-05-16T04:56:40.746Z,40.15
2023-05-16T04:59:08.726Z,39.84
2023-05-16T05:01:36.741Z,39.46
2023-05-16T05:04:05.160Z,39.85
2023-05-16T05:06:33.032Z,40.00
2023-05-16T05:09:01.114Z,39.69
2023-05-16T05:11:29.009Z,39.70
2023-05-16T05:13:56.903Z,39.68
2023-05-16T05:16:24.737Z,40.01
2023-05-16T05:18:53.290Z,40.48
2023-05-16T05:21:22.101Z,40.39
2023-05-16T05:23:50.695Z,40.16
2023-05-16T05:26:20.636Z,40.11
2023-05-16T05:29:01.077Z,40.11
2023-05-16T05:31:33.826Z,39.99
2023-05-16T05:34:01.786Z,39.86
2023-05-16T05:36:29.644Z,40.15
2023-05-16T05:38:57.555Z,40.65
2023-05-16T05:41:25.391Z,40.49
2023-05-16T05:43:53.285Z,40.56
2023-05-16T05:46:21.172Z,39.69
2023-05-16T05:48:49.056Z,40.17
2023-05-16T05:51:17.971Z,40.09
2023-05-16T05:53:45.815Z,40.40
2023-05-16T05:56:13.651Z,39.94
2023-05-16T05:58:42.681Z,40.58
2023-05-16T06:01:10.563Z,40.63
2023-05-16T06:03:38.616Z,40.47
2023-05-16T06:06:06.672Z,40.21
2023-05-16T06:08:34.609Z,40.12
2023-05-16T06:11:02.803Z,40.01
2023-05-16T06:13:30.679Z,40.46
2023-05-16T06:15:58.712Z,40.05
2023-05-16T06:18:26.589Z,40.20
2023-05-16T06:20:54.476Z,39.87
2023-05-16T06:23:22.427Z,39.91
2023-05-16T06:25:50.255Z,40.05
2023-05-16T06:28:19.270Z,40.35
2023-05-16T06:30:48.048Z,40.47
2023-05-16T06:33:16.452Z,40.37
2023-05-16T06:35:44.515Z,40.45
2023-05-16T06:38:12.501Z,40.14
2023-05-16T06:40:40.616Z,39.90
2023-05-16T06:43:08.471Z,40.47
2023-05-16T06:45:36.576Z,40.41
2023-05-16T06:48:04.559Z,39.61
2023-05-16T06:50:32.593Z,39.58
2023-05-16T06:53:00.949Z,39.31
2023-05-16T06:55:29.158Z,39.53
2023-05-16T06:57:57.334Z,39.88
2023-05-16T07:00:25.175Z,40.02
2023-05-16T07:02:53.426Z,39.91
2023-05-16T07:05:21.364Z,40.29
2023-05-16T07:07:50.209Z,40.10
2023-05-16T07:10:18.171Z,39.91
2023-05-16T07:12:46.262Z,40.00
2023-05-16T07:15:14.429Z,39.86
2023-05-16T07:17:43.191Z,40.16
2023-05-16T07:20:13.706Z,40.04
2023-05-16T07:22:41.673Z,40.05
2023-05-16T07:25:12.761Z,39.91
2023-05-16T07:27:42.001Z,39.85
2023-05-16T07:30:10.146Z,40.10
2023-05-16T07:32:38.165Z,40.19
2023-05-16T07:35:06.057Z,39.70
2023-05-16T07:37:35.047Z,39.91
2023-05-16T07:40:03.732Z,39.80
2023-05-16T07:42:31.690Z,39.59
2023-05-16T07:44:59.521Z,39.94
2023-05-16T07:47:27.571Z,39.35
2023-05-16T07:49:57.303Z,39.54
2023-05-16T07:52:25.648Z,39.50
2023-05-16T07:54:53.499Z,39.60
2023-05-16T07:57:23.201Z,39.87
2023-05-16T07:59:53.529Z,39.59
2023-05-16T08:02:21.552Z,39.35
2023-05-16T08:04:50.443Z,39.13
2023-05-16T08:07:18.284Z,38.86
2023-05-16T08:09:46.228Z,38.98
2023-05-16T08:12:14.070Z,38.97
2023-05-16T08:14:41.919Z,38.78
2023-05-16T08:17:09.781Z,38.90
2023-05-16T08:19:37.681Z,38.73
2023-05-16T08:22:05.575Z,38.60
2023-05-16T08:24:33.470Z,39.14
2023-05-16T08:27:01.352Z,39.16
2023-05-16T08:29:29.252Z,38.79
2023-05-16T08:31:57.267Z,39.09
2023-05-16T08:34:25.332Z,38.74
2023-05-16T08:36:54.127Z,38.66
2023-05-16T08:39:21.964Z,38.55
2023-05-16T08:41:49.901Z,38.32
2023-05-16T08:44:21.575Z,37.62
2023-05-16T08:46:49.617Z,38.30
2023-05-16T08:49:17.520Z,38.22
2023-05-16T08:51:45.440Z,38.38
2023-05-16T08:54:13.442Z,38.46
2023-05-16T08:56:41.526Z,38.23
2023-05-16T08:59:09.432Z,38.51
2023-05-16T09:01:37.587Z,37.91
2023-05-16T09:04:05.541Z,38.27
2023-05-16T09:06:33.505Z,38.38
2023-05-16T09:09:01.313Z,38.28
2023-05-16T09:11:29.174Z,38.04
2023-05-16T09:13:57.131Z,37.92
2023-05-16T09:16:25.312Z,38.48
2023-05-16T09:18:53.447Z,38.17
2023-05-16T09:21:21.595Z,38.65
2023-05-16T09:23:49.480Z,38.06
2023-05-16T09:26:18.416Z,38.17
2023-05-16T09:28:46.347Z,38.41
2023-05-16T09:31:14.285Z,38.61
2023-05-16T09:33:42.285Z,38.67
2023-05-16T09:36:10.180Z,38.38
2023-05-16T09:38:38.023Z,37.95
2023-05-16T09:41:05.929Z,38.20
2023-05-16T09:43:35.624Z,38.06
2023-05-16T09:46:05.106Z,38.43
2023-05-16T09:48:33.006Z,38.26
2023-05-16T09:51:04.289Z,38.33
2023-05-16T09:53:32.407Z,38.36
2023-05-16T09:56:00.261Z,38.47
2023-05-16T09:58:28.083Z,38.01
2023-05-16T10:00:55.956Z,38.67
2023-05-16T10:03:23.861Z,38.45
2023-05-16T10:05:53.150Z,38.44
2023-05-16T10:08:21.854Z,38.51
2023-05-16T10:10:51.763Z,38.60
2023-05-16T10:13:19.624Z,38.27
2023-05-16T10:15:47.529Z,38.20
2023-05-16T10:18:15.772Z,38.40
2023-05-16T10:20:43.777Z,38.38
2023-05-16T10:23:11.787Z,38.15
2023-05-16T10:25:39.963Z,38.21
2023-05-16T10:28:07.837Z,38.28
2023-05-16T10:30:35.760Z,38.56
2023-05-16T10:33:04.380Z,38.28
2023-05-16T10:35:32.868Z,38.33
2023-05-16T10:38:00.765Z,37.96
2023-05-16T10:40:28.659Z,38.10
2023-05-16T10:42:56.951Z,38.42
2023-05-16T10:45:24.820Z,37.94
2023-05-16T10:47:52.704Z,38.02
2023-05-16T10:50:20.632Z,38.22
2023-05-16T10:52:48.503Z,38.21
2023-05-16T10:55:16.295Z,38.37
2023-05-16T10:57:44.194Z,38.61
2023-05-16T11:00:12.092Z,38.20
2023-05-16T11:02:40.207Z,38.10
2023-05-16T11:05:08.154Z,38.18
2023-05-16T11:07:36.703Z,38.60
2023-05-16T11:10:05.536Z,38.42
2023-05-16T11:12:33.387Z,38.51
2023-05-16T11:15:01.271Z,38.34
2023-05-16T11:17:29.416Z,38.12
2023-05-16T11:19:59.384Z,38.40
2023-05-16T11:22:27.681Z,38.17
2023-05-16T11:24:55.599Z,37.85
2023-05-16T11:27:23.810Z,38.04
2023-05-16T11:29:51.802Z,38.40
2023-05-16T11:32:19.706Z,38.02
2023-05-16T11:34:48.322Z,38.29
2023-05-16T11:37:16.312Z,38.18
2023-05-16T11:39:44.457Z,37.71
2023-05-16T11:42:13.461Z,37.60
2023-05-16T11:44:41.629Z,37.80
2023-05-16T11:47:09.597Z,37.65
2023-05-16T11:49:37.749Z,38.12
2023-05-16T11:52:05.725Z,38.12
2023-05-16T11:54:34.765Z,38.19
2023-05-16T11:57:03.256Z,37.83
2023-05-16T11:59:31.306Z,37.70
2023-05-16T12:01:59.169Z,37.43
2023-05-16T12:04:27.371Z,38.01
2023-05-16T12:06:55.413Z,37.70
2023-05-16T12:09:23.366Z,37.89
2023-05-16T12:11:51.272Z,37.70
2023-05-16T12:14:19.173Z,37.43
2023-05-16T12:16:47.212Z,37.42
2023-05-16T12:19:15.457Z,37.33
2023-05-16T12:21:43.612Z,37.79
2023-05-16T12:24:11.891Z,37.35
2023-05-16T12:26:39.817Z,37.76
2023-05-16T12:29:07.743Z,37.39
2023-05-16T12:31:35.854Z,37.42
2023-05-16T12:34:03.808Z,36.90
2023-05-16T12:36:31.882Z,37.12
2023-05-16T12:39:00.056Z,37.23
2023-05-16T12:41:27.980Z,37.48
2023-05-16T12:43:55.905Z,36.73
2023-05-16T12:46:23.849Z,37.14
2023-05-16T12:48:51.838Z,37.22
2023-05-16T12:51:20.136Z,36.78
2023-05-16T12:54:01.283Z,36.40
2023-05-16T12:56:33.878Z,37.05
2023-05-16T12:59:01.872Z,37.08
2023-05-16T13:01:29.945Z,36.80
2023-05-16T13:03:58.179Z,36.37
2023-05-16T13:06:26.836Z,36.85
2023-05-16T13:08:54.782Z,36.88
2023-05-16T13:11:22.800Z,36.46
2023-05-16T13:13:50.781Z,36.80
2023-05-16T13:16:18.854Z,36.96
2023-05-16T13:18:46.841Z,36.03
2023-05-16T13:21:15.133Z,36.21
2023-05-16T13:23:43.147Z,36.04
2023-05-16T13:26:11.077Z,36.35
2023-05-16T13:28:39.003Z,37.05
2023-05-16T13:31:07.256Z,36.92
2023-05-16T13:33:36.251Z,36.69
2023-05-16T13:36:04.184Z,37.00
2023-05-16T13:38:32.681Z,36.29
2023-05-16T13:41:00.557Z,36.83
2023-05-16T13:43:28.427Z,36.97
2023-05-16T13:45:56.542Z,36.82
2023-05-16T13:48:25.223Z,36.61
2023-05-16T13:50:55.951Z,36.00
2023-05-16T13:53:23.837Z,37.08
2023-05-16T13:55:51.872Z,36.99
2023-05-16T13:58:19.837Z,36.96
2023-05-16T14:00:48.120Z,36.92
2023-05-16T14:03:16.387Z,36.14
2023-05-16T14:05:44.434Z,36.49
2023-05-16T14:08:12.534Z,36.69
2023-05-16T14:10:40.564Z,36.04
2023-05-16T14:13:08.470Z,36.77
2023-05-16T14:15:36.599Z,36.82
2023-05-16T14:18:05.229Z,36.77
2023-05-16T14:20:33.208Z,37.39
2023-05-16T14:23:01.025Z,37.07
2023-05-16T14:25:29.366Z,37.11
2023-05-16T14:27:57.479Z,36.88
2023-05-16T14:30:25.564Z,36.60
2023-05-16T14:32:53.691Z,36.87
2023-05-16T14:35:21.640Z,37.17
2023-05-16T14:37:49.632Z,37.13
2023-05-16T14:40:17.526Z,36.75
2023-05-16T14:42:45.537Z,37.41
2023-05-16T14:45:13.843Z,37.18
2023-05-16T14:47:42.425Z,36.95
2023-05-16T14:50:10.384Z,37.31
2023-05-16T14:52:39.074Z,36.91
2023-05-16T14:55:07.275Z,36.50
2023-05-16T14:57:35.235Z,36.65
2023-05-16T15:00:03.321Z,36.91
2023-05-16T15:02:31.294Z,36.84
2023-05-16T15:04:59.375Z,36.57
2023-05-16T15:07:27.286Z,36.24
2023-05-16T15:09:55.170Z,35.54
2023-05-16T15:12:23.019Z,35.75
2023-05-16T15:14:50.976Z,35.57
2023-05-16T15:17:18.827Z,34.88
2023-05-16T15:19:47.934Z,34.89
2023-05-16T15:22:15.838Z,35.49
2023-05-16T15:24:43.894Z,34.88
2023-05-16T15:27:12.081Z,35.11
2023-05-16T15:29:40.032Z,35.41
2023-05-16T15:32:07.974Z,35.31
2023-05-16T15:34:35.969Z,35.59
2023-05-16T15:37:03.998Z,35.72
2023-05-16T15:39:31.889Z,35.38
2023-05-16T15:42:10.098Z,35.60
2023-05-16T15:44:39.220Z,35.81
2023-05-16T15:47:07.382Z,35.85
2023-05-16T15:49:35.320Z,36.14
2023-05-16T15:52:03.428Z,35.76
2023-05-16T15:54:31.489Z,35.97
2023-05-16T15:56:59.446Z,35.96
2023-05-16T15:59:27.390Z,35.84
2023-05-16T16:01:55.640Z,35.33
2023-05-16T16:04:23.816Z,35.64
2023-05-16T16:06:51.734Z,35.44
2023-05-16T16:09:19.603Z,35.45
2023-05-16T16:11:47.581Z,35.88
2023-05-16T16:14:15.418Z,36.19
2023-05-16T16:16:43.665Z,36.03
2023-05-16T16:19:12.018Z,36.20
2023-05-16T16:21:39.995Z,36.00
2023-05-16T16:24:08.313Z,35.42
2023-05-16T16:26:36.320Z,36.18
2023-05-16T16:29:04.208Z,35.74
2023-05-16T16:31:32.110Z,35.71
2023-05-16T16:34:00.090Z,35.22
2023-05-16T16:36:27.958Z,36.12
2023-05-16T16:38:55.858Z,35.54
2023-05-16T16:41:23.703Z,35.40
2023-05-16T16:43:51.603Z,35.84
2023-05-16T16:46:19.635Z,35.37
2023-05-16T16:48:48.284Z,35.02
2023-05-16T16:51:16.390Z,35.38
2023-05-16T16:53:44.275Z,34.92
2023-05-16T16:56:12.161Z,35.36
2023-05-16T16:58:40.026Z,35.35
2023-05-16T17:01:08.384Z,34.93
2023-05-16T17:03:36.525Z,35.48
2023-05-16T17:06:04.458Z,35.14
2023-05-16T17:08:32.437Z,35.46
2023-05-16T17:11:05.085Z,35.57
2023-05-16T17:13:34.058Z,35.96
2023-05-16T17:16:02.143Z,35.76
2023-05-16T17:18:31.180Z,36.11
2023-05-16T17:21:00.283Z,35.95
2023-05-16T17:23:28.230Z,35.52
2023-05-16T17:25:56.300Z,35.52
2023-05-16T17:28:24.095Z,35.80
2023-05-16T17:30:51.980Z,35.55
2023-05-16T17:33:19.877Z,36.02
2023-05-16T17:35:48.257Z,35.92
2023-05-16T17:38:16.183Z,35.99
2023-05-16T17:40:44.033Z,35.37
2023-05-16T17:43:12.040Z,35.71
2023-05-16T17:45:40.535Z,35.52
2023-05-16T17:48:09.610Z,35.76
2023-05-16T17:50:37.716Z,35.97
2023-05-16T17:53:07.888Z,35.82
2023-05-16T17:55:38.271Z,36.24
2023-05-16T17:58:06.930Z,36.28
2023-05-16T18:00:35.103Z,36.36
2023-05-16T18:03:03.200Z,36.11
2023-05-16T18:05:31.490Z,35.67
2023-05-16T18:08:01.621Z,36.23
2023-05-16T18:10:36.839Z,35.96
2023-05-16T18:13:18.064Z,35.80
2023-05-16T18:15:45.948Z,35.50
2023-05-16T18:18:14.156Z,35.19
2023-05-16T18:20:42.996Z,35.09
2023-05-16T18:23:11.092Z,34.91
2023-05-16T18:25:38.973Z,34.76
2023-05-16T18:28:06.853Z,34.21
2023-05-16T18:30:37.724Z,34.37
2023-05-16T18:33:06.595Z,34.55
2023-05-16T18:35:34.497Z,34.32
2023-05-16T18:38:04.030Z,34.25
2023-05-16T18:40:32.085Z,34.35
2023-05-16T18:42:59.952Z,34.31
2023-05-16T18:45:29.868Z,34.54
2023-05-16T18:47:58.029Z,34.40
2023-05-16T18:50:26.052Z,35.08
2023-05-16T18:52:57.535Z,34.48
2023-05-16T18:55:25.617Z,34.90
2023-05-16T18:57:54.068Z,35.07
2023-05-16T19:00:21.893Z,34.92
2023-05-16T19:02:50.516Z,35.26
2023-05-16T19:05:19.578Z,35.51
2023-05-16T19:07:47.692Z,35.21
2023-05-16T19:10:15.590Z,34.91
2023-05-16T19:12:46.862Z,35.85
2023-05-16T19:15:14.762Z,35.92
2023-05-16T19:17:43.087Z,36.25
2023-05-16T19:20:11.135Z,35.70
2023-05-16T19:22:39.049Z,35.27
2023-05-16T19:25:06.976Z,35.66
2023-05-16T19:27:35.640Z,35.29
2023-05-16T19:30:03.791Z,35.17
2023-05-16T19:32:31.922Z,35.26
2023-05-16T19:34:59.908Z,35.26
2023-05-16T19:37:28.302Z,35.43
2023-05-16T19:39:56.217Z,35.60
2023-05-16T19:42:24.188Z,36.19
2023-05-16T19:44:52.104Z,35.92
2023-05-16T19:47:19.991Z,35.95
2023-05-16T19:49:48.256Z,36.10
2023-05-16T19:52:18.422Z,35.80
2023-05-16T19:54:46.980Z,36.12
2023-05-16T19:57:14.887Z,35.96
2023-05-16T19:59:42.853Z,35.79
2023-05-16T20:02:13.550Z,36.48
2023-05-16T20:04:41.454Z,36.06
2023-05-16T20:07:09.525Z,35.74
2023-05-16T20:09:37.494Z,35.80
2023-05-16T20:12:05.310Z,35.94
2023-05-16T20:14:33.206Z,35.76
2023-05-16T20:17:01.076Z,35.73
2023-05-16T20:19:32.235Z,35.79
2023-05-16T20:22:00.283Z,36.66
2023-05-16T20:24:29.712Z,35.87
2023-05-16T20:26:58.248Z,36.43
2023-05-16T20:29:26.183Z,35.95
2023-05-16T20:31:54.060Z,36.40
2023-05-16T20:34:21.944Z,36.31
2023-05-16T20:36:49.769Z,36.95
2023-05-16T20:39:21.397Z,36.94
2023-05-16T20:41:50.394Z,36.76
2023-05-16T20:44:18.250Z,37.14
2023-05-16T20:46:46.533Z,36.54
2023-05-16T20:49:14.446Z,37.39
2023-05-16T20:51:42.462Z,36.84
2023-05-16T20:54:13.681Z,36.64
2023-05-16T20:56:41.560Z,37.44
2023-05-16T20:59:10.932Z,37.17
2023-05-16T21:01:41.694Z,36.64
2023-05-16T21:04:11.996Z,37.02
2023-05-16T21:06:40.044Z,37.22
2023-05-16T21:09:08.227Z,36.95
2023-05-16T21:11:36.249Z,36.75
2023-05-16T21:14:04.166Z,36.78
2023-05-16T21:16:32.203Z,37.29
2023-05-16T21:19:02.023Z,36.68
2023-05-16T21:21:30.245Z,36.89
2023-05-16T21:23:58.509Z,36.89
2023-05-16T21:26:26.321Z,37.54
2023-05-16T21:28:55.923Z,37.61
2023-05-16T21:31:24.045Z,36.74
2023-05-16T21:33:52.727Z,36.95
2023-05-16T21:36:26.901Z,36.56
2023-05-16T21:38:54.989Z,37.15
2023-05-16T21:41:23.325Z,37.41
2023-05-16T21:43:51.168Z,37.73
2023-05-16T21:46:19.114Z,37.27
2023-05-16T21:48:47.040Z,37.56
2023-05-16T21:51:14.972Z,37.56
2023-05-16T21:53:43.021Z,37.09
2023-05-16T21:56:11.057Z,37.59
2023-05-16T21:58:38.886Z,37.42
2023-05-16T22:01:06.859Z,38.44
2023-05-16T22:03:35.053Z,38.16
2023-05-16T22:06:03.156Z,37.82
2023-05-16T22:08:31.090Z,37.66
2023-05-16T22:10:59.113Z,37.82
2023-05-16T22:13:27.021Z,37.02
2023-05-16T22:16:04.145Z,37.47
2023-05-16T22:18:33.585Z,37.31
2023-05-16T22:21:02.381Z,37.59
2023-05-16T22:23:30.273Z,37.48
2023-05-16T22:25:58.520Z,37.71
2023-05-16T22:28:26.478Z,37.26
2023-05-16T22:30:54.377Z,37.58
2023-05-16T22:33:23.556Z,37.33
2023-05-16T22:35:51.569Z,38.16
2023-05-16T22:38:19.440Z,37.23
2023-05-16T22:40:47.448Z,37.42
2023-05-16T22:43:15.371Z,37.08
2023-05-16T22:45:43.428Z,37.48
2023-05-16T22:48:11.415Z,37.67
2023-05-16T22:50:39.378Z,38.01
2023-05-16T22:53:07.229Z,37.63
2023-05-16T22:55:35.093Z,37.85
2023-05-16T22:58:03.067Z,38.04
2023-05-16T23:00:30.917Z,37.88
2023-05-16T23:02:58.987Z,37.92
2023-05-16T23:05:27.100Z,37.77
2023-05-16T23:11:04.776Z,37.93
2023-05-16T23:13:32.622Z,37.84
2023-05-16T23:19:09.962Z,38.14
2023-05-16T23:21:38.590Z,37.64
2023-05-16T23:24:06.624Z,38.58
2023-05-16T23:26:34.465Z,38.40
2023-05-16T23:29:02.343Z,38.03
2023-05-16T23:31:30.200Z,38.21
2023-05-16T23:33:58.478Z,37.81
2023-05-16T23:36:26.377Z,38.19
2023-05-16T23:38:54.253Z,38.07
2023-05-16T23:41:22.051Z,38.26
2023-05-16T23:43:49.951Z,37.94
2023-05-16T23:46:17.799Z,38.13
2023-05-16T23:48:46.064Z,38.55
2023-05-16T23:51:14.102Z,38.06
2023-05-16T23:53:42.016Z,38.17
2023-05-16T23:56:09.953Z,38.45
2023-05-16T23:58:37.908Z,38.35
